createdAt,value
2022-08-07T00:00:15.451Z,100.00
2022-08-07T00:02:45.887Z,100.00
2022-08-07T00:05:13.434Z,100.00
2022-08-07T00:07:41.646Z,100.00
2022-08-07T00:10:27.330Z,100.00
2022-08-07T00:13:01.242Z,100.00
2022-08-07T00:15:37.725Z,100.00
2022-08-07T00:18:18.930Z,100.00
2022-08-07T00:20:46.760Z,100.00
2022-08-07T00:23:15.085Z,100.00
2022-08-07T00:25:51.825Z,100.00
2022-08-07T00:28:33.572Z,100.00
2022-08-07T00:31:12.618Z,100.00
2022-08-07T00:33:43.784Z,100.00
2022-08-07T00:36:15.223Z,100.00
2022-08-07T00:38:43.907Z,100.00
2022-08-07T00:41:14.464Z,100.00
2022-08-07T00:44:02.024Z,100.00
2022-08-07T00:46:30.889Z,100.00
2022-08-07T00:49:03.365Z,100.00
2022-08-07T00:51:57.753Z,100.00
2022-08-07T00:54:19.899Z,100.00
2022-08-07T00:56:49.596Z,100.00
2022-08-07T00:59:17.713Z,100.00
2022-08-07T01:01:48.730Z,100.00
2022-08-07T01:04:24.686Z,100.00
2022-08-07T01:06:52.031Z,100.00
2022-08-07T01:09:35.683Z,100.00
2022-08-07T01:12:28.751Z,100.00
2022-08-07T01:15:00.958Z,100.00
2022-08-07T01:17:29.138Z,100.00
2022-08-07T01:20:02.055Z,100.00
2022-08-07T01:22:31.526Z,100.00
2022-08-07T01:24:59.894Z,100.00
2022-08-07T01:27:31.971Z,100.00
2022-08-07T01:30:00.678Z,100.00
2022-08-07T01:32:28.730Z,100.00
2022-08-07T01:34:56.202Z,100.00
2022-08-07T01:37:24.738Z,100.00
2022-08-07T01:39:52.601Z,100.00
2022-08-07T01:42:37.966Z,100.00
2022-08-07T01:45:10.002Z,100.00
2022-08-07T01:48:20.740Z,100.00
2022-08-07T01:50:32.859Z,100.00
2022-08-07T01:53:08.633Z,100.00
2022-08-07T01:55:49.642Z,100.00
2022-08-07T01:58:29.706Z,100.00
2022-08-07T02:01:10.046Z,100.00
2022-08-07T02:04:00.197Z,100.00
2022-08-07T02:06:31.365Z,100.00
2022-08-07T02:09:04.500Z,100.00
2022-08-07T02:12:02.942Z,100.00
2022-08-07T02:14:35.634Z,100.00
2022-08-07T02:17:04.134Z,100.00
2022-08-07T02:20:07.817Z,100.00
2022-08-07T02:22:25.912Z,100.00
2022-08-07T02:24:56.188Z,100.00
2022-08-07T02:27:25.656Z,100.00
2022-08-07T02:29:55.103Z,100.00
2022-08-07T02:32:29.796Z,100.00
2022-08-07T02:34:58.868Z,100.00
2022-08-07T02:37:34.207Z,100.00
2022-08-07T02:40:29.777Z,100.00
2022-08-07T02:42:52.804Z,100.00
2022-08-07T02:45:20.681Z,100.00
2022-08-07T02:48:09.965Z,100.00
2022-08-07T02:50:39.814Z,100.00
2022-08-07T02:53:11.887Z,100.00
2022-08-07T02:56:04.287Z,100.00
2022-08-07T02:58:34.261Z,100.00
2022-08-07T03:01:03.084Z,100.00
2022-08-07T03:03:49.489Z,100.00
2022-08-07T03:06:25.824Z,100.00
2022-08-07T03:09:02.289Z,100.00
2022-08-07T03:11:32.653Z,100.00
2022-08-07T03:14:06.284Z,100.00
2022-08-07T03:16:34.957Z,100.00
2022-08-07T03:19:02.111Z,100.00
2022-08-07T03:21:33.121Z,100.00
2022-08-07T03:24:19.761Z,100.00
2022-08-07T03:26:58.455Z,100.00
2022-08-07T03:29:30.890Z,100.00
2022-08-07T03:32:02.900Z,100.00
2022-08-07T03:34:31.852Z,100.00
2022-08-07T03:37:12.491Z,100.00
2022-08-07T03:39:59.420Z,100.00
2022-08-07T03:42:28.938Z,100.00
2022-08-07T03:44:58.143Z,100.00
2022-08-07T03:47:28.056Z,100.00
2022-08-07T03:49:58.109Z,100.00
2022-08-07T03:52:28.334Z,100.00
2022-08-07T03:55:07.274Z,100.00
2022-08-07T03:58:08.698Z,100.00
2022-08-07T04:00:30.708Z,100.00
2022-08-07T04:03:03.846Z,100.00
2022-08-07T04:05:39.460Z,100.00
2022-08-07T04:08:16.260Z,100.00
2022-08-07T04:10:54.600Z,100.00
2022-08-07T04:14:10.510Z,100.00
2022-08-07T04:16:30.352Z,100.00
2022-08-07T04:19:04.307Z,100.00
2022-08-07T04:21:58.827Z,100.00
2022-08-07T04:24:33.682Z,100.00
2022-08-07T04:27:03.106Z,100.00
2022-08-07T04:29:49.010Z,100.00
2022-08-07T04:32:18.639Z,100.00
2022-08-07T04:35:05.635Z,100.00
2022-08-07T04:38:02.859Z,100.00
2022-08-07T04:40:29.694Z,100.00
2022-08-07T04:43:01.744Z,100.00
2022-08-07T04:45:57.610Z,100.00
2022-08-07T04:48:50.853Z,100.00
2022-08-07T04:51:38.173Z,100.00
2022-08-07T04:54:36.794Z,100.00
2022-08-07T04:58:14.160Z,100.00
2022-08-07T05:00:18.842Z,100.00
2022-08-07T05:03:02.389Z,100.00
2022-08-07T05:05:57.115Z,100.00
2022-08-07T05:08:59.939Z,100.00
2022-08-07T05:11:57.262Z,100.00
2022-08-07T05:14:56.349Z,100.00
2022-08-07T05:17:52.156Z,100.00
2022-08-07T05:20:11.927Z,100.00
2022-08-07T05:22:41.804Z,100.00
2022-08-07T05:25:36.612Z,100.00
2022-08-07T05:28:02.615Z,100.00
2022-08-07T05:30:47.199Z,100.00
2022-08-07T05:33:15.935Z,100.00
2022-08-07T05:35:46.200Z,100.00
2022-08-07T05:39:01.170Z,100.00
2022-08-07T05:41:12.257Z,100.00
2022-08-07T05:44:01.554Z,100.00
2022-08-07T05:46:36.552Z,100.00
2022-08-07T05:49:11.764Z,100.00
2022-08-07T05:51:42.292Z,100.00
2022-08-07T05:54:30.138Z,100.00
2022-08-07T05:56:57.440Z,100.00
2022-08-07T05:59:27.379Z,100.00
2022-08-07T06:01:57.376Z,100.00
2022-08-07T06:04:26.289Z,100.00
2022-08-07T06:07:03.955Z,100.00
2022-08-07T06:10:03.849Z,100.00
2022-08-07T06:12:21.051Z,100.00
2022-08-07T06:14:55.280Z,100.00
2022-08-07T06:17:37.590Z,100.00
2022-08-07T06:20:06.726Z,100.00
2022-08-07T06:23:01.831Z,100.00
2022-08-07T06:25:34.785Z,100.00
2022-08-07T06:28:07.633Z,100.00
2022-08-07T06:30:41.368Z,100.00
2022-08-07T06:33:16.662Z,100.00
2022-08-07T06:35:47.520Z,100.00
2022-08-07T06:38:20.558Z,100.00
2022-08-07T06:40:53.363Z,98.13
2022-08-07T06:43:23.785Z,96.57
2022-08-07T06:45:51.601Z,98.24
2022-08-07T06:48:25.190Z,98.13
2022-08-07T06:50:55.040Z,99.11
2022-08-07T06:54:11.758Z,99.31
2022-08-07T06:56:14.852Z,99.23
2022-08-07T07:00:13.247Z,95.72
2022-08-07T07:01:43.659Z,95.35
2022-08-07T07:04:28.056Z,94.42
2022-08-07T07:07:18.885Z,91.18
2022-08-07T07:10:34.788Z,88.22
2022-08-07T07:13:13.509Z,86.00
2022-08-07T07:15:57.164Z,74.66
2022-08-07T07:18:47.412Z,74.65
2022-08-07T07:21:27.030Z,74.01
2022-08-07T07:24:13.462Z,73.82
2022-08-07T07:26:55.165Z,71.86
2022-08-07T07:29:56.517Z,67.57
2022-08-07T07:32:33.198Z,64.83
2022-08-07T07:35:06.097Z,66.18
2022-08-07T07:37:47.334Z,66.39
2022-08-07T07:40:26.189Z,61.61
2022-08-07T07:43:11.747Z,64.02
2022-08-07T07:46:40.067Z,63.18
2022-08-07T07:51:08.621Z,64.21
2022-08-07T07:53:51.302Z,61.37
2022-08-07T07:56:29.958Z,62.36
2022-08-07T07:59:01.684Z,62.22
2022-08-07T08:02:03.732Z,58.82
2022-08-07T08:04:20.366Z,57.90
2022-08-07T08:06:54.081Z,59.42
2022-08-07T08:09:29.539Z,60.52
2022-08-07T08:12:02.389Z,61.13
2022-08-07T08:14:36.189Z,59.93
2022-08-07T08:17:56.033Z,59.18
2022-08-07T08:20:19.494Z,59.02
2022-08-07T08:23:10.216Z,58.52
2022-08-07T08:25:58.267Z,59.02
2022-08-07T08:28:38.638Z,57.95
2022-08-07T08:31:14.573Z,59.47
2022-08-07T08:33:55.911Z,56.04
2022-08-07T08:36:30.104Z,56.65
2022-08-07T08:39:01.962Z,56.90
2022-08-07T08:41:59.066Z,56.06
2022-08-07T08:44:40.901Z,54.95
2022-08-07T08:47:52.474Z,54.54
2022-08-07T08:50:39.427Z,51.07
2022-08-07T08:53:19.913Z,53.69
2022-08-07T08:56:02.674Z,51.43
2022-08-07T08:58:54.463Z,53.29
2022-08-07T09:01:43.769Z,50.70
2022-08-07T09:04:43.681Z,51.19
2022-08-07T09:07:46.372Z,52.80
2022-08-07T09:10:27.260Z,49.18
2022-08-07T09:13:00.542Z,52.74
2022-08-07T09:16:23.468Z,53.31
2022-08-07T09:18:58.475Z,51.17
2022-08-07T09:21:57.894Z,52.64
2022-08-07T09:24:59.328Z,53.75
2022-08-07T09:27:38.358Z,52.82
2022-08-07T09:30:27.961Z,49.64
2022-08-07T09:33:41.132Z,49.46
2022-08-07T09:36:37.381Z,48.24
2022-08-07T09:39:53.739Z,45.92
2022-08-07T09:42:51.392Z,45.81
2022-08-07T09:47:25.695Z,46.89
2022-08-07T09:48:56.089Z,46.36
2022-08-07T09:52:34.797Z,44.53
2022-08-07T09:56:03.674Z,45.45
2022-08-07T09:58:33.461Z,46.97
2022-08-07T10:01:04.793Z,49.08
2022-08-07T10:04:05.922Z,47.94
2022-08-07T10:07:26.024Z,48.91
2022-08-07T10:10:21.333Z,48.07
2022-08-07T10:13:11.141Z,49.82
2022-08-07T10:16:06.042Z,49.11
2022-08-07T10:18:42.301Z,50.65
2022-08-07T10:21:50.632Z,50.82
2022-08-07T10:24:47.164Z,52.26
2022-08-07T10:27:46.252Z,50.82
2022-08-07T10:30:20.232Z,54.02
2022-08-07T10:33:15.401Z,54.11
2022-08-07T10:36:12.659Z,54.63
2022-08-07T10:39:01.115Z,55.24
2022-08-07T10:41:56.759Z,55.47
2022-08-07T10:44:50.066Z,58.15
2022-08-07T10:47:54.457Z,56.41
2022-08-07T10:50:47.667Z,54.74
2022-08-07T10:53:26.402Z,54.35
2022-08-07T10:56:02.543Z,54.91
2022-08-07T10:58:59.608Z,54.62
2022-08-07T11:01:51.662Z,54.66
2022-08-07T11:04:41.650Z,56.07
2022-08-07T11:07:56.998Z,55.87
2022-08-07T11:10:11.146Z,56.98
2022-08-07T11:13:02.306Z,59.22
2022-08-07T11:15:34.394Z,59.71
2022-08-07T11:18:29.641Z,57.89
2022-08-07T11:21:14.213Z,59.29
2022-08-07T11:23:50.077Z,58.82
2022-08-07T11:26:26.750Z,58.06
2022-08-07T11:29:01.845Z,57.61
2022-08-07T11:31:42.624Z,57.74
2022-08-07T11:34:20.997Z,56.55
2022-08-07T11:37:06.847Z,57.00
2022-08-07T11:39:59.822Z,55.56
2022-08-07T11:42:55.332Z,53.76
2022-08-07T11:45:35.875Z,52.11
2022-08-07T11:49:04.370Z,53.00
2022-08-07T11:51:46.999Z,51.58
2022-08-07T11:54:38.541Z,49.99
2022-08-07T11:58:00.689Z,49.68
2022-08-07T12:01:04.198Z,48.87
2022-08-07T12:03:45.993Z,50.51
2022-08-07T12:06:51.661Z,49.45
2022-08-07T12:09:36.734Z,49.02
2022-08-07T12:12:18.591Z,49.50
2022-08-07T12:15:17.325Z,49.60
2022-08-07T12:18:29.933Z,50.71
2022-08-07T12:22:37.499Z,48.95
2022-08-07T12:24:38.181Z,48.94
2022-08-07T12:27:16.880Z,50.46
2022-08-07T12:29:54.116Z,49.11
2022-08-07T12:32:34.554Z,48.02
2022-08-07T12:35:08.230Z,49.00
2022-08-07T12:38:09.278Z,49.36
2022-08-07T12:44:02.315Z,50.80
2022-08-07T12:46:12.304Z,50.44
2022-08-07T12:48:55.079Z,49.40
2022-08-07T12:51:46.423Z,51.68
2022-08-07T12:54:54.680Z,50.48
2022-08-07T12:57:26.158Z,50.61
2022-08-07T13:00:16.455Z,52.22
2022-08-07T13:02:56.959Z,51.18
2022-08-07T13:06:02.631Z,49.47
2022-08-07T13:10:18.938Z,50.77
2022-08-07T13:12:27.067Z,49.30
2022-08-07T13:15:29.569Z,49.16
2022-08-07T13:18:28.214Z,48.14
2022-08-07T13:21:05.209Z,48.29
2022-08-07T13:24:01.951Z,49.84
2022-08-07T13:26:35.870Z,47.83
2022-08-07T13:29:12.831Z,47.94
2022-08-07T13:31:54.976Z,48.92
2022-08-07T13:34:36.102Z,48.64
2022-08-07T13:37:40.844Z,48.17
2022-08-07T13:40:35.839Z,48.21
2022-08-07T13:43:16.189Z,47.74
2022-08-07T13:46:11.285Z,48.42
2022-08-07T13:51:27.293Z,47.70
2022-08-07T13:54:01.682Z,47.70
2022-08-07T13:56:36.134Z,47.31
2022-08-07T13:59:12.828Z,48.39
2022-08-07T14:02:04.476Z,47.63
2022-08-07T14:04:36.028Z,47.37
2022-08-07T14:07:09.622Z,48.77
2022-08-07T14:10:01.383Z,49.28
2022-08-07T14:12:32.315Z,49.71
2022-08-07T14:15:09.053Z,51.13
2022-08-07T14:18:23.942Z,51.28
2022-08-07T14:20:39.970Z,50.94
2022-08-07T14:23:59.431Z,51.26
2022-08-07T14:29:08.832Z,51.73
2022-08-07T14:31:57.780Z,55.57
2022-08-07T14:34:30.320Z,54.32
2022-08-07T14:40:15.466Z,62.72
2022-08-07T14:43:00.808Z,66.77
2022-08-07T14:48:34.504Z,74.59
2022-08-07T14:51:07.475Z,79.01
2022-08-07T14:54:08.649Z,80.55
2022-08-07T14:56:33.350Z,81.18
2022-08-07T14:59:14.003Z,85.26
2022-08-07T15:01:58.854Z,86.89
2022-08-07T15:04:28.916Z,83.77
2022-08-07T15:06:57.907Z,86.53
2022-08-07T15:09:59.833Z,86.43
2022-08-07T15:12:26.049Z,87.09
2022-08-07T15:15:07.435Z,84.84
2022-08-07T15:20:55.214Z,87.66
2022-08-07T15:25:14.459Z,92.21
2022-08-07T15:26:35.833Z,89.35
2022-08-07T15:30:04.692Z,92.11
2022-08-07T15:32:00.803Z,91.34
2022-08-07T15:34:50.454Z,91.57
2022-08-07T15:37:29.328Z,92.96
2022-08-07T15:40:34.010Z,93.66
2022-08-07T15:43:10.806Z,94.11
2022-08-07T15:49:13.086Z,95.89
2022-08-07T15:54:34.805Z,99.39
2022-08-07T15:57:10.816Z,99.01
2022-08-07T16:00:31.258Z,97.33
2022-08-07T16:03:00.810Z,99.54
2022-08-07T16:05:31.599Z,98.32
2022-08-07T16:08:30.793Z,97.89
2022-08-07T16:11:28.679Z,98.39
2022-08-07T16:14:11.969Z,99.60
2022-08-07T16:17:15.212Z,96.23
2022-08-07T16:20:33.647Z,98.10
2022-08-07T16:23:53.183Z,100.00
2022-08-07T16:26:30.700Z,100.00
2022-08-07T16:30:08.756Z,100.00
2022-08-07T16:31:58.679Z,100.00
2022-08-07T16:34:50.521Z,100.00
2022-08-07T16:38:05.547Z,100.00
2022-08-07T16:40:57.334Z,100.00
2022-08-07T16:44:05.992Z,100.00
2022-08-07T16:46:48.434Z,100.00
2022-08-07T16:50:27.190Z,100.00
2022-08-07T16:53:55.617Z,100.00
2022-08-07T16:56:17.281Z,100.00
2022-08-07T16:59:10.698Z,100.00
2022-08-07T17:01:51.366Z,100.00
2022-08-07T17:05:06.163Z,100.00
2022-08-07T17:07:55.458Z,100.00
2022-08-07T17:10:36.956Z,100.00
2022-08-07T17:13:22.882Z,100.00
2022-08-07T17:15:57.876Z,100.00
2022-08-07T17:18:48.908Z,100.00
2022-08-07T17:21:24.650Z,100.00
2022-08-07T17:23:59.593Z,100.00
2022-08-07T17:26:30.474Z,100.00
2022-08-07T17:30:13.890Z,100.00
2022-08-07T17:32:35.172Z,100.00
2022-08-07T17:35:56.871Z,100.00
2022-08-07T17:38:50.282Z,100.00
2022-08-07T17:42:03.505Z,99.55
2022-08-07T17:44:49.933Z,100.00
2022-08-07T17:47:42.135Z,100.00
2022-08-07T17:50:30.655Z,100.00
2022-08-07T17:53:07.952Z,99.74
2022-08-07T17:56:28.782Z,100.00
2022-08-07T17:59:02.215Z,100.00
2022-08-07T18:01:40.360Z,100.00
2022-08-07T18:04:31.229Z,100.00
2022-08-07T18:07:22.593Z,100.00
2022-08-07T18:10:06.824Z,100.00
2022-08-07T18:12:54.390Z,100.00
2022-08-07T18:15:32.737Z,100.00
2022-08-07T18:18:46.718Z,100.00
2022-08-07T18:21:27.470Z,100.00
2022-08-07T18:24:33.064Z,100.00
2022-08-07T18:27:38.932Z,100.00
2022-08-07T18:30:32.765Z,100.00
2022-08-07T18:33:29.621Z,100.00
2022-08-07T18:36:16.394Z,100.00
2022-08-07T18:38:56.298Z,100.00
2022-08-07T18:41:54.488Z,100.00
2022-08-07T18:45:39.741Z,100.00
2022-08-07T18:47:44.396Z,100.00
2022-08-07T18:50:40.525Z,100.00
2022-08-07T18:53:36.987Z,100.00
2022-08-07T18:56:30.756Z,100.00
2022-08-07T18:59:47.160Z,100.00
2022-08-07T19:02:36.540Z,100.00
2022-08-07T19:06:02.248Z,100.00
2022-08-07T19:08:50.548Z,100.00
2022-08-07T19:11:36.378Z,100.00
2022-08-07T19:14:08.042Z,100.00
2022-08-07T19:17:07.724Z,100.00
2022-08-07T19:19:59.320Z,100.00
2022-08-07T19:22:38.114Z,100.00
2022-08-07T19:25:12.673Z,100.00
2022-08-07T19:28:30.630Z,100.00
2022-08-07T19:31:41.708Z,100.00
2022-08-07T19:33:52.303Z,100.00
2022-08-07T19:36:28.343Z,100.00
2022-08-07T19:38:59.677Z,100.00
2022-08-07T19:41:44.901Z,100.00
2022-08-07T19:44:31.535Z,100.00
2022-08-07T19:47:10.756Z,100.00
2022-08-07T19:49:56.375Z,100.00
2022-08-07T19:52:28.659Z,100.00
2022-08-07T19:55:00.687Z,100.00
2022-08-07T19:58:01.029Z,100.00
2022-08-07T20:00:31.838Z,100.00
2022-08-07T20:03:34.676Z,100.00
2022-08-07T20:06:04.760Z,100.00
2022-08-07T20:08:39.790Z,100.00
2022-08-07T20:11:34.274Z,100.00
2022-08-07T20:14:07.314Z,100.00
2022-08-07T20:16:45.499Z,100.00
2022-08-07T20:19:14.670Z,100.00
2022-08-07T20:21:48.316Z,100.00
2022-08-07T20:24:28.901Z,100.00
2022-08-07T20:27:02.643Z,100.00
2022-08-07T20:29:48.855Z,100.00
2022-08-07T20:32:25.985Z,100.00
2022-08-07T20:35:00.096Z,100.00
2022-08-07T20:37:37.064Z,100.00
2022-08-07T20:40:32.338Z,100.00
2022-08-07T20:43:14.483Z,100.00
2022-08-07T20:46:28.388Z,100.00
2022-08-07T20:48:49.572Z,100.00
2022-08-07T20:51:30.659Z,100.00
2022-08-07T20:54:09.446Z,100.00
2022-08-07T20:56:46.222Z,100.00
2022-08-07T21:00:05.394Z,100.00
2022-08-07T21:02:38.396Z,100.00
2022-08-07T21:05:18.445Z,100.00
2022-08-07T21:08:12.595Z,100.00
2022-08-07T21:10:47.764Z,100.00
2022-08-07T21:13:24.607Z,100.00
2022-08-07T21:16:11.676Z,100.00
2022-08-07T21:18:46.097Z,100.00
2022-08-07T21:21:16.655Z,100.00
2022-08-07T21:23:58.603Z,100.00
2022-08-07T21:27:12.287Z,100.00
2022-08-07T21:30:18.891Z,100.00
2022-08-07T21:33:03.402Z,100.00
2022-08-07T21:36:31.465Z,100.00
2022-08-07T21:39:47.772Z,100.00
2022-08-07T21:42:37.487Z,100.00
2022-08-07T21:46:08.049Z,100.00
2022-08-07T21:48:41.438Z,100.00
2022-08-07T21:51:51.885Z,100.00
2022-08-07T21:54:45.928Z,100.00
2022-08-07T21:57:51.694Z,100.00
2022-08-07T22:00:26.597Z,100.00
2022-08-07T22:03:07.453Z,100.00
2022-08-07T22:05:50.330Z,100.00
2022-08-07T22:08:24.587Z,100.00
2022-08-07T22:11:01.680Z,100.00
2022-08-07T22:13:51.985Z,100.00
2022-08-07T22:16:45.430Z,100.00
2022-08-07T22:19:57.366Z,100.00
2022-08-07T22:22:30.009Z,100.00
2022-08-07T22:25:11.093Z,100.00
2022-08-07T22:28:08.055Z,100.00
2022-08-07T22:30:57.131Z,100.00
2022-08-07T22:33:57.145Z,100.00
2022-08-07T22:36:27.843Z,100.00
2022-08-07T22:39:23.392Z,100.00
2022-08-07T22:42:03.723Z,100.00
2022-08-07T22:44:58.142Z,100.00
2022-08-07T22:47:45.376Z,100.00
2022-08-07T22:50:28.850Z,100.00
2022-08-07T22:53:09.209Z,100.00
2022-08-07T22:56:00.765Z,100.00
2022-08-07T22:58:28.288Z,100.00
2022-08-07T23:04:00.141Z,100.00
2022-08-07T23:06:51.948Z,100.00
2022-08-07T23:10:00.990Z,100.00
2022-08-07T23:13:11.422Z,100.00
2022-08-07T23:16:44.771Z,100.00
2022-08-07T23:19:58.566Z,100.00
2022-08-07T23:22:32.713Z,100.00
2022-08-07T23:25:20.987Z,100.00
2022-08-07T23:28:22.772Z,100.00
2022-08-07T23:31:07.091Z,100.00
2022-08-07T23:34:35.692Z,100.00
2022-08-07T23:37:20.106Z,100.00
2022-08-07T23:39:55.548Z,100.00
2022-08-07T23:42:53.362Z,100.00
2022-08-07T23:45:33.438Z,100.00
2022-08-07T23:48:35.400Z,100.00
2022-08-07T23:52:58.251Z,100.00
2022-08-07T23:54:06.293Z,100.00
2022-08-07T23:57:04.163Z,100.00
